createdAt,value
2023-11-11T00:01:08.710Z,4.93
2023-11-11T00:03:35.881Z,7.22
2023-11-11T00:06:03.326Z,8.70
2023-11-11T00:08:30.302Z,2.97
2023-11-11T00:10:58.632Z,3.85
2023-11-11T00:13:25.599Z,5.28
2023-11-11T00:15:52.553Z,6.32
2023-11-11T00:18:19.562Z,7.00
2023-11-11T00:20:46.564Z,4.13
2023-11-11T00:23:13.487Z,4.18
2023-11-11T00:25:43.028Z,5.03
2023-11-11T00:28:11.389Z,6.47
2023-11-11T00:30:42.138Z,2.42
2023-11-11T00:33:09.534Z,6.30
2023-11-11T00:35:36.514Z,4.40
2023-11-11T00:38:03.480Z,4.70
2023-11-11T00:40:30.399Z,2.67
2023-11-11T00:42:57.290Z,3.88
2023-11-11T00:45:25.624Z,3.45
2023-11-11T00:47:52.726Z,3.00
2023-11-11T00:50:19.734Z,4.28
2023-11-11T00:52:46.644Z,6.50
2023-11-11T00:55:13.585Z,3.42
2023-11-11T00:57:40.658Z,4.03
2023-11-11T01:00:09.075Z,4.15
2023-11-11T01:02:37.514Z,3.33
2023-11-11T01:05:04.923Z,2.65
2023-11-11T01:07:31.825Z,6.28
2023-11-11T01:09:58.739Z,1.95
2023-11-11T01:12:25.709Z,1.40
2023-11-11T01:14:52.704Z,1.88
2023-11-11T01:17:19.646Z,4.40
2023-11-11T01:19:48.136Z,0.80
2023-11-11T01:22:15.108Z,7.10
2023-11-11T01:24:42.099Z,2.22
2023-11-11T01:27:09.254Z,2.85
2023-11-11T01:29:36.148Z,2.08
2023-11-11T01:32:03.307Z,2.45
2023-11-11T01:34:30.214Z,0.60
2023-11-11T01:36:58.529Z,0.93
2023-11-11T01:39:25.425Z,0.52
2023-11-11T01:41:52.341Z,1.15
2023-11-11T01:44:19.292Z,0.60
2023-11-11T01:46:46.692Z,1.08
2023-11-11T01:49:13.841Z,1.38
2023-11-11T01:51:40.945Z,0.43
2023-11-11T01:54:09.287Z,0.77
2023-11-11T01:56:36.459Z,0.40
2023-11-11T01:59:03.393Z,0.40
2023-11-11T02:01:30.438Z,0.55
2023-11-11T02:03:57.887Z,0.50
2023-11-11T02:06:27.180Z,0.80
2023-11-11T02:08:54.282Z,0.98
2023-11-11T02:11:22.619Z,0.45
2023-11-11T02:13:49.575Z,0.47
2023-11-11T02:16:17.324Z,0.90
2023-11-11T02:18:44.281Z,1.15
2023-11-11T02:21:11.303Z,3.10
2023-11-11T02:23:39.924Z,2.58
2023-11-11T02:26:06.820Z,1.35
2023-11-11T02:28:33.785Z,1.85
2023-11-11T02:31:00.804Z,1.77
2023-11-11T02:33:27.859Z,0.70
2023-11-11T02:35:54.760Z,1.52
2023-11-11T02:38:21.689Z,1.27
2023-11-11T02:40:49.979Z,0.60
2023-11-11T02:43:16.956Z,0.73
2023-11-11T02:45:43.923Z,2.40
2023-11-11T02:48:10.911Z,3.78
2023-11-11T02:50:37.832Z,0.57
2023-11-11T02:53:04.748Z,0.57
2023-11-11T02:55:31.661Z,0.60
2023-11-11T02:57:59.937Z,1.02
2023-11-11T03:00:26.954Z,1.98
2023-11-11T03:02:53.900Z,1.38
2023-11-11T03:05:20.853Z,2.30
2023-11-11T03:07:47.752Z,1.13
2023-11-11T03:10:14.874Z,0.70
2023-11-11T03:12:45.044Z,1.77
2023-11-11T03:15:13.489Z,3.22
2023-11-11T03:17:40.566Z,1.10
2023-11-11T03:20:08.479Z,2.38
2023-11-11T03:22:35.413Z,1.40
2023-11-11T03:25:02.344Z,2.22
2023-11-11T03:27:29.278Z,1.92
2023-11-11T03:29:56.274Z,6.05
2023-11-11T03:32:24.609Z,5.47
2023-11-11T03:34:51.782Z,2.78
2023-11-11T03:37:18.670Z,5.00
2023-11-11T03:39:45.789Z,6.50
2023-11-11T03:42:12.764Z,8.10
2023-11-11T03:44:39.685Z,3.25
2023-11-11T03:47:06.887Z,3.90
2023-11-11T03:49:35.145Z,7.32
2023-11-11T03:52:02.080Z,9.48
2023-11-11T03:54:29.284Z,7.72
2023-11-11T03:56:56.220Z,13.95
2023-11-11T03:59:23.110Z,14.40
2023-11-11T04:01:50.060Z,16.98
2023-11-11T04:04:16.986Z,22.45
2023-11-11T04:06:45.410Z,19.17
2023-11-11T04:09:12.404Z,25.52
2023-11-11T04:11:39.446Z,26.67
2023-11-11T04:14:06.399Z,28.83
2023-11-11T04:16:33.453Z,33.80
2023-11-11T04:19:00.434Z,35.90
2023-11-11T04:21:27.412Z,38.65
2023-11-11T04:23:55.705Z,34.92
2023-11-11T04:26:22.646Z,33.22
2023-11-11T04:28:49.585Z,28.00
2023-11-11T04:31:16.506Z,32.53
2023-11-11T04:33:43.478Z,35.08
2023-11-11T04:36:10.513Z,29.38
2023-11-11T04:38:37.413Z,31.88
2023-11-11T04:41:05.991Z,32.78
2023-11-11T04:43:33.372Z,33.60
2023-11-11T04:46:00.275Z,34.53
2023-11-11T04:48:27.206Z,36.35
2023-11-11T04:50:54.112Z,29.20
2023-11-11T04:53:21.050Z,31.33
2023-11-11T04:55:48.057Z,38.85
2023-11-11T04:58:16.321Z,35.22
2023-11-11T05:00:43.261Z,32.17
2023-11-11T05:03:10.261Z,35.70
2023-11-11T05:05:37.152Z,33.05
2023-11-11T05:08:04.059Z,28.08
2023-11-11T05:10:31.109Z,29.15
2023-11-11T05:12:58.007Z,30.23
2023-11-11T05:15:26.323Z,32.03
2023-11-11T05:17:53.292Z,37.28
2023-11-11T05:20:20.284Z,24.80
2023-11-11T05:22:47.379Z,29.40
2023-11-11T05:25:14.528Z,22.55
2023-11-11T05:27:41.507Z,32.88
2023-11-11T05:30:08.980Z,22.23
2023-11-11T05:32:37.582Z,31.75
2023-11-11T05:35:04.909Z,32.33
2023-11-11T05:37:31.798Z,28.83
2023-11-11T05:39:58.764Z,19.23
2023-11-11T05:42:25.681Z,20.15
2023-11-11T05:44:52.642Z,20.45
2023-11-11T05:47:19.525Z,17.55
2023-11-11T05:49:47.795Z,22.45
2023-11-11T05:52:14.760Z,16.25
2023-11-11T05:54:41.838Z,16.58
2023-11-11T05:57:08.804Z,20.58
2023-11-11T05:59:35.707Z,17.25
2023-11-11T06:02:02.650Z,17.15
2023-11-11T06:04:29.614Z,18.08
2023-11-11T06:06:57.936Z,19.45
2023-11-11T06:09:24.870Z,21.13
2023-11-11T06:11:51.896Z,22.30
2023-11-11T06:14:18.809Z,24.15
2023-11-11T06:16:46.197Z,29.30
2023-11-11T06:19:13.369Z,22.95
2023-11-11T06:21:40.328Z,26.30
2023-11-11T06:24:09.024Z,24.70
2023-11-11T06:26:38.124Z,22.77
2023-11-11T06:29:05.394Z,27.60
2023-11-11T06:31:32.304Z,19.88
2023-11-11T06:33:59.256Z,24.42
2023-11-11T06:36:26.297Z,17.55
2023-11-11T06:38:53.233Z,14.95
2023-11-11T06:41:21.504Z,16.27
2023-11-11T06:43:48.386Z,16.55
2023-11-11T06:46:16.092Z,11.23
2023-11-11T06:48:43.158Z,20.13
2023-11-11T06:51:10.490Z,11.48
2023-11-11T06:53:37.377Z,14.35
2023-11-11T06:56:04.843Z,14.68
2023-11-11T06:58:33.123Z,12.32
2023-11-11T07:01:00.177Z,12.13
2023-11-11T07:03:27.433Z,16.92
2023-11-11T07:05:54.324Z,15.07
2023-11-11T07:08:21.227Z,13.70
2023-11-11T07:10:48.150Z,13.02
2023-11-11T07:13:15.092Z,14.25
2023-11-11T07:15:43.491Z,13.02
2023-11-11T07:18:10.538Z,9.43
2023-11-11T07:20:37.451Z,9.48
2023-11-11T07:23:04.356Z,12.40
2023-11-11T07:25:31.262Z,9.93
2023-11-11T07:27:58.149Z,8.60
2023-11-11T07:30:25.044Z,7.40
2023-11-11T07:32:59.964Z,8.95
2023-11-11T07:35:28.987Z,7.18
2023-11-11T07:37:55.911Z,10.63
2023-11-11T07:40:22.819Z,6.97
2023-11-11T07:42:49.744Z,8.15
2023-11-11T07:45:16.687Z,8.93
2023-11-11T07:47:43.645Z,5.90
2023-11-11T07:50:12.160Z,5.22
2023-11-11T07:52:39.040Z,5.38
2023-11-11T07:55:06.624Z,9.00
2023-11-11T08:00:03.592Z,6.82
2023-11-11T08:02:30.470Z,6.82
2023-11-11T08:04:57.394Z,8.05
2023-11-11T08:07:25.699Z,9.40
2023-11-11T08:09:52.621Z,6.45
2023-11-11T08:12:19.604Z,9.00
2023-11-11T08:14:46.594Z,8.43
2023-11-11T08:17:13.557Z,7.32
2023-11-11T08:19:40.509Z,8.95
2023-11-11T08:22:07.446Z,8.20
2023-11-11T08:24:35.777Z,10.13
2023-11-11T08:27:02.713Z,6.65
2023-11-11T08:29:29.621Z,9.05
2023-11-11T08:31:56.623Z,11.18
2023-11-11T08:34:23.545Z,15.38
2023-11-11T08:36:53.359Z,12.02
2023-11-11T08:39:20.714Z,11.75
2023-11-11T08:41:49.198Z,13.00
2023-11-11T08:44:16.134Z,13.23
2023-11-11T08:46:43.172Z,13.35
2023-11-11T08:49:10.365Z,12.88
2023-11-11T08:51:37.437Z,11.63
2023-11-11T08:54:04.553Z,13.88
2023-11-11T08:56:31.484Z,9.98
2023-11-11T08:58:59.766Z,13.77
2023-11-11T09:01:26.724Z,18.88
2023-11-11T09:03:53.751Z,12.88
2023-11-11T09:06:20.694Z,13.20
2023-11-11T09:08:47.580Z,14.35
2023-11-11T09:11:14.554Z,14.00
2023-11-11T09:13:41.507Z,14.52
2023-11-11T09:16:09.858Z,13.30
2023-11-11T09:18:36.862Z,10.95
2023-11-11T09:21:04.324Z,17.42
2023-11-11T09:23:31.247Z,16.65
2023-11-11T09:25:58.274Z,14.18
2023-11-11T09:28:25.198Z,13.80
2023-11-11T09:30:52.214Z,15.88
2023-11-11T09:33:20.661Z,20.45
2023-11-11T09:35:47.676Z,16.15
2023-11-11T09:38:14.642Z,22.30
2023-11-11T09:40:41.565Z,16.25
2023-11-11T09:43:08.561Z,15.32
2023-11-11T09:45:35.553Z,13.75
2023-11-11T09:48:02.602Z,16.25
2023-11-11T09:50:31.009Z,20.02
2023-11-11T09:52:58.295Z,12.02
2023-11-11T09:55:25.357Z,9.55
2023-11-11T09:57:52.349Z,15.32
2023-11-11T10:00:19.398Z,13.45
2023-11-11T10:02:46.487Z,15.88
2023-11-11T10:05:13.624Z,9.00
2023-11-11T10:07:42.098Z,15.13
2023-11-11T10:10:10.069Z,13.93
2023-11-11T10:12:37.440Z,14.35
2023-11-11T10:15:04.899Z,16.40
2023-11-11T10:17:34.684Z,18.27
2023-11-11T10:20:01.676Z,14.68
2023-11-11T10:22:28.644Z,18.00
2023-11-11T10:24:56.957Z,15.23
2023-11-11T10:27:23.859Z,20.95
2023-11-11T10:29:50.748Z,20.50
2023-11-11T10:32:17.804Z,13.10
2023-11-11T10:34:44.846Z,15.68
2023-11-11T10:37:11.808Z,13.13
2023-11-11T10:39:38.736Z,15.48
2023-11-11T10:42:07.378Z,13.73
2023-11-11T10:44:34.309Z,12.05
2023-11-11T10:47:01.240Z,8.90
2023-11-11T10:49:28.377Z,16.63
2023-11-11T10:51:56.343Z,15.20
2023-11-11T10:54:24.763Z,10.80
2023-11-11T10:56:52.406Z,17.23
2023-11-11T10:59:23.308Z,14.15
2023-11-11T11:01:50.329Z,13.98
2023-11-11T11:04:17.755Z,18.92
2023-11-11T11:06:49.613Z,17.55
2023-11-11T11:09:25.775Z,12.20
2023-11-11T11:12:02.210Z,11.82
2023-11-11T11:14:46.719Z,14.63
2023-11-11T11:17:13.677Z,13.73
2023-11-11T11:19:54.085Z,12.07
2023-11-11T11:22:24.707Z,11.05
2023-11-11T11:24:51.734Z,8.85
2023-11-11T11:27:20.222Z,12.85
2023-11-11T11:29:48.515Z,12.73
2023-11-11T11:32:23.275Z,11.90
2023-11-11T11:35:25.197Z,11.35
2023-11-11T11:37:52.648Z,9.70
2023-11-11T11:40:19.939Z,8.02
2023-11-11T11:42:49.583Z,6.13
2023-11-11T11:45:29.374Z,7.75
2023-11-11T11:47:56.448Z,8.77
2023-11-11T11:50:24.170Z,6.47
2023-11-11T11:52:51.137Z,9.93
2023-11-11T11:55:18.243Z,6.57
2023-11-11T11:57:54.637Z,5.85
2023-11-11T12:00:23.367Z,6.13
2023-11-11T12:02:50.471Z,7.47
2023-11-11T12:05:17.589Z,8.55
2023-11-11T12:07:49.831Z,13.48
2023-11-11T12:10:17.587Z,9.57
2023-11-11T12:12:44.898Z,7.13
2023-11-11T12:15:12.738Z,9.25
2023-11-11T12:17:41.221Z,7.97
2023-11-11T12:20:09.101Z,9.55
2023-11-11T12:22:36.100Z,6.22
2023-11-11T12:25:03.659Z,10.45
2023-11-11T12:27:30.591Z,9.10
2023-11-11T12:29:57.501Z,4.40
2023-11-11T12:32:24.418Z,4.55
2023-11-11T12:34:52.800Z,5.45
2023-11-11T12:37:20.006Z,9.63
2023-11-11T12:39:50.684Z,5.28
2023-11-11T12:42:24.648Z,7.80
2023-11-11T12:44:51.711Z,7.80
2023-11-11T12:47:18.725Z,10.35
2023-11-11T12:49:53.647Z,4.97
2023-11-11T12:52:20.569Z,9.20
2023-11-11T12:54:47.529Z,8.75
2023-11-11T12:57:24.104Z,7.60
2023-11-11T12:59:55.399Z,5.47
2023-11-11T13:02:22.320Z,9.55
2023-11-11T13:04:50.288Z,8.68
2023-11-11T13:07:22.764Z,9.02
2023-11-11T13:09:49.734Z,6.07
2023-11-11T13:12:16.695Z,8.18
2023-11-11T13:14:44.668Z,8.38
2023-11-11T13:17:11.714Z,10.25
2023-11-11T13:19:38.777Z,8.70
2023-11-11T13:22:06.004Z,14.73
2023-11-11T13:24:34.357Z,8.98
2023-11-11T13:27:01.327Z,9.43
2023-11-11T13:29:28.539Z,11.52
2023-11-11T13:31:55.693Z,11.75
2023-11-11T13:34:22.662Z,9.85
2023-11-11T13:36:49.706Z,7.20
2023-11-11T13:39:16.670Z,8.40
2023-11-11T13:41:44.928Z,9.05
2023-11-11T13:44:11.816Z,7.22
2023-11-11T13:46:38.745Z,14.60
2023-11-11T13:49:05.728Z,12.00
2023-11-11T13:51:32.633Z,8.82
2023-11-11T13:53:59.511Z,12.00
2023-11-11T13:56:26.916Z,13.85
2023-11-11T13:58:55.225Z,14.85
2023-11-11T14:01:22.325Z,11.70
2023-11-11T14:03:50.620Z,13.05
2023-11-11T14:06:17.645Z,11.43
2023-11-11T14:08:44.638Z,13.23
2023-11-11T14:11:11.653Z,9.27
2023-11-11T14:13:38.686Z,17.63
2023-11-11T14:16:07.636Z,10.30
2023-11-11T14:18:34.536Z,14.82
2023-11-11T14:21:01.455Z,12.40
2023-11-11T14:23:28.787Z,9.75
2023-11-11T14:25:55.918Z,19.23
2023-11-11T14:28:23.761Z,10.75
2023-11-11T14:30:51.051Z,12.25
2023-11-11T14:33:19.821Z,11.77
2023-11-11T14:35:47.093Z,16.50
2023-11-11T14:38:14.138Z,14.30
2023-11-11T14:40:41.603Z,7.15
2023-11-11T14:43:08.590Z,9.88
2023-11-11T14:45:35.519Z,12.48
2023-11-11T14:48:02.645Z,14.65
2023-11-11T14:50:30.927Z,10.40
2023-11-11T14:52:57.879Z,10.70
2023-11-11T14:55:24.798Z,9.05
2023-11-11T14:57:52.078Z,11.73
2023-11-11T15:00:18.986Z,9.35
2023-11-11T15:02:46.186Z,12.27
2023-11-11T15:05:13.328Z,9.52
2023-11-11T15:07:41.706Z,10.88
2023-11-11T15:10:09.396Z,6.93
2023-11-11T15:12:36.328Z,9.05
2023-11-11T15:15:03.452Z,8.90
2023-11-11T15:17:30.660Z,13.85
2023-11-11T15:19:57.712Z,11.52
2023-11-11T15:22:24.646Z,7.20
2023-11-11T15:24:53.176Z,9.00
2023-11-11T15:27:20.345Z,8.98
2023-11-11T15:29:47.798Z,12.15
2023-11-11T15:32:14.806Z,13.20
2023-11-11T15:34:43.537Z,10.55
2023-11-11T15:37:10.831Z,12.45
2023-11-11T15:39:37.777Z,8.15
2023-11-11T15:42:06.758Z,8.93
2023-11-11T15:44:33.812Z,9.18
2023-11-11T15:47:01.236Z,11.63
2023-11-11T15:49:28.223Z,9.45
2023-11-11T15:51:55.222Z,10.60
2023-11-11T15:54:22.338Z,7.05
2023-11-11T15:56:50.378Z,10.68
2023-11-11T15:59:18.877Z,12.73
2023-11-11T16:01:45.888Z,9.43
2023-11-11T16:04:13.205Z,14.35
2023-11-11T16:06:40.475Z,4.60
2023-11-11T16:09:07.490Z,17.48
2023-11-11T16:11:34.420Z,7.57
2023-11-11T16:14:01.395Z,13.77
2023-11-11T16:16:29.890Z,11.55
2023-11-11T16:18:56.796Z,12.90
2023-11-11T16:21:25.054Z,9.45
2023-11-11T16:23:53.300Z,12.38
2023-11-11T16:26:21.404Z,9.07
2023-11-11T16:28:49.203Z,11.38
2023-11-11T16:31:22.232Z,10.27
2023-11-11T16:33:52.435Z,10.32
2023-11-11T16:36:19.360Z,8.13
2023-11-11T16:38:46.270Z,6.43
2023-11-11T16:41:13.264Z,9.20
2023-11-11T16:43:41.603Z,8.90
2023-11-11T16:46:08.645Z,9.02
2023-11-11T16:48:35.548Z,17.58
2023-11-11T16:51:04.178Z,10.23
2023-11-11T16:53:31.269Z,8.43
2023-11-11T16:55:58.400Z,11.20
2023-11-11T16:58:25.345Z,9.18
2023-11-11T17:00:52.226Z,9.40
2023-11-11T17:03:19.208Z,9.77
2023-11-11T17:05:46.107Z,10.13
2023-11-11T17:08:14.388Z,12.00
2023-11-11T17:10:41.408Z,7.03
2023-11-11T17:13:08.333Z,10.02
2023-11-11T17:15:35.220Z,15.45
2023-11-11T17:18:02.256Z,11.00
2023-11-11T17:20:29.200Z,8.73
2023-11-11T17:22:56.126Z,14.35
2023-11-11T17:25:24.390Z,11.35
2023-11-11T17:27:51.282Z,7.90
2023-11-11T17:30:18.288Z,7.88
2023-11-11T17:32:45.326Z,8.10
2023-11-11T17:35:12.336Z,7.10
2023-11-11T17:37:39.347Z,10.52
2023-11-11T17:40:07.612Z,6.63
2023-11-11T17:42:35.889Z,7.03
2023-11-11T17:45:02.998Z,10.30
2023-11-11T17:47:30.088Z,13.10
2023-11-11T17:49:57.103Z,9.13
2023-11-11T17:52:24.092Z,7.70
2023-11-11T17:54:50.981Z,9.40
2023-11-11T17:57:17.975Z,11.52
2023-11-11T17:59:46.866Z,12.50
2023-11-11T18:02:13.874Z,9.00
2023-11-11T18:04:41.135Z,10.50
2023-11-11T18:07:08.074Z,6.43
2023-11-11T18:09:35.092Z,8.68
2023-11-11T18:12:01.968Z,7.72
2023-11-11T18:14:28.892Z,10.07
2023-11-11T18:16:57.339Z,10.05
2023-11-11T18:19:24.553Z,6.65
2023-11-11T18:21:51.527Z,10.35
2023-11-11T18:24:18.826Z,8.60
2023-11-11T18:26:45.907Z,8.75
2023-11-11T18:29:12.921Z,5.18
2023-11-11T18:31:39.879Z,10.85
2023-11-11T18:34:08.180Z,11.52
2023-11-11T18:36:35.147Z,11.13
2023-11-11T18:39:02.123Z,9.45
2023-11-11T18:41:29.079Z,9.48
2023-11-11T18:43:56.159Z,8.25
2023-11-11T18:46:23.169Z,11.52
2023-11-11T18:48:50.143Z,8.50
2023-11-11T18:51:18.704Z,12.57
2023-11-11T18:53:45.654Z,8.93
2023-11-11T18:56:12.609Z,16.08
2023-11-11T18:58:39.558Z,11.00
2023-11-11T19:01:06.657Z,10.00
2023-11-11T19:03:33.743Z,10.95
2023-11-11T19:06:00.837Z,8.80
2023-11-11T19:08:29.147Z,12.13
2023-11-11T19:10:56.086Z,10.77
2023-11-11T19:13:23.018Z,9.77
2023-11-11T19:15:50.013Z,12.88
2023-11-11T19:18:16.948Z,8.52
2023-11-11T19:20:43.875Z,10.27
2023-11-11T19:23:11.822Z,8.30
2023-11-11T19:25:40.229Z,10.13
2023-11-11T19:28:07.212Z,14.75
2023-11-11T19:30:34.130Z,13.35
2023-11-11T19:33:01.148Z,8.70
2023-11-11T19:35:28.110Z,9.80
2023-11-11T19:37:55.141Z,6.90
2023-11-11T19:40:22.048Z,5.97
2023-11-11T19:42:50.402Z,12.00
2023-11-11T19:45:17.422Z,6.53
2023-11-11T19:47:44.583Z,8.73
2023-11-11T19:50:12.467Z,12.18
2023-11-11T19:52:39.522Z,12.85
2023-11-11T19:55:07.891Z,15.35
2023-11-11T19:57:35.454Z,7.57
2023-11-11T20:00:04.969Z,10.70
2023-11-11T20:02:32.037Z,8.63
2023-11-11T20:04:59.018Z,9.02
2023-11-11T20:07:25.951Z,9.77
2023-11-11T20:09:52.968Z,9.93
2023-11-11T20:12:19.892Z,8.07
2023-11-11T20:14:46.858Z,11.68
2023-11-11T20:17:15.231Z,9.25
2023-11-11T20:19:42.616Z,7.03
2023-11-11T20:22:09.529Z,15.38
2023-11-11T20:24:36.457Z,11.02
2023-11-11T20:27:03.511Z,12.30
2023-11-11T20:29:30.438Z,10.05
2023-11-11T20:31:57.404Z,13.52
2023-11-11T20:34:25.804Z,9.38
2023-11-11T20:36:52.706Z,7.75
2023-11-11T20:39:19.716Z,9.77
2023-11-11T20:41:46.666Z,11.02
2023-11-11T20:44:13.668Z,7.47
2023-11-11T20:46:40.736Z,12.98
2023-11-11T20:49:07.745Z,17.08
2023-11-11T20:51:42.909Z,13.82
2023-11-11T20:54:09.983Z,15.88
2023-11-11T20:56:36.909Z,12.15
2023-11-11T20:59:03.973Z,13.77
2023-11-11T21:01:30.947Z,16.63
2023-11-11T21:03:58.064Z,13.15
2023-11-11T21:06:25.068Z,12.05
2023-11-11T21:08:53.338Z,10.63
2023-11-11T21:11:20.358Z,14.80
2023-11-11T21:13:47.293Z,10.88
2023-11-11T21:16:14.272Z,13.20
2023-11-11T21:18:41.198Z,17.70
2023-11-11T21:21:08.166Z,16.05
2023-11-11T21:23:35.055Z,12.35
2023-11-11T21:26:04.178Z,12.48
2023-11-11T21:28:31.166Z,10.18
2023-11-11T21:30:58.159Z,10.38
2023-11-11T21:33:25.082Z,16.25
2023-11-11T21:35:52.001Z,13.15
2023-11-11T21:38:19.011Z,11.77
2023-11-11T21:40:46.979Z,12.23
2023-11-11T21:43:15.622Z,14.63
2023-11-11T21:45:42.768Z,15.70
2023-11-11T21:48:09.943Z,16.25
2023-11-11T21:50:36.972Z,11.85
2023-11-11T21:53:04.000Z,20.25
2023-11-11T21:55:31.182Z,19.48
2023-11-11T21:57:58.255Z,17.50
2023-11-11T22:00:26.769Z,30.30
2023-11-11T22:02:54.026Z,30.48
2023-11-11T22:05:21.421Z,30.30
2023-11-11T22:07:48.621Z,35.95
2023-11-11T22:10:15.760Z,29.00
2023-11-11T22:12:42.893Z,26.33
2023-11-11T22:15:10.340Z,21.05
2023-11-11T22:17:38.810Z,16.10
2023-11-11T22:20:07.188Z,19.95
2023-11-11T22:22:34.271Z,16.83
2023-11-11T22:25:01.287Z,12.77
2023-11-11T22:27:28.225Z,15.50
2023-11-11T22:29:55.212Z,13.20
2023-11-11T22:32:22.689Z,17.98
2023-11-11T22:34:51.049Z,16.98
2023-11-11T22:37:18.104Z,14.05
2023-11-11T22:39:45.054Z,13.40
2023-11-11T22:42:12.103Z,12.77
2023-11-11T22:44:39.014Z,16.13
2023-11-11T22:47:06.125Z,18.15
2023-11-11T22:49:33.071Z,13.70
2023-11-11T22:52:01.395Z,18.13
2023-11-11T22:54:28.311Z,17.15
2023-11-11T22:56:55.200Z,14.85
2023-11-11T22:59:22.206Z,22.15
2023-11-11T23:01:49.205Z,21.83
2023-11-11T23:04:16.249Z,15.45
2023-11-11T23:06:43.224Z,24.48
2023-11-11T23:09:11.557Z,13.65
2023-11-11T23:11:38.436Z,12.25
2023-11-11T23:14:05.560Z,11.80
2023-11-11T23:16:32.549Z,10.23
2023-11-11T23:18:59.630Z,14.93
2023-11-11T23:21:26.563Z,9.80
2023-11-11T23:23:53.468Z,8.30
2023-11-11T23:26:21.755Z,12.48
2023-11-11T23:28:48.729Z,15.18
2023-11-11T23:31:15.678Z,18.88
2023-11-11T23:33:42.670Z,10.45
2023-11-11T23:36:09.669Z,14.70
2023-11-11T23:38:36.624Z,17.23
2023-11-11T23:41:04.013Z,14.55
2023-11-11T23:43:32.412Z,12.65
2023-11-11T23:45:59.329Z,18.40
2023-11-11T23:48:26.218Z,10.75
2023-11-11T23:50:53.203Z,13.00
2023-11-11T23:53:20.126Z,15.90
2023-11-11T23:55:47.272Z,15.93
2023-11-11T23:58:14.204Z,13.07
